createdAt,value
2023-05-12T00:01:43.329Z,123.87
2023-05-12T00:04:52.992Z,121.31
2023-05-12T00:08:00.068Z,126.56
2023-05-12T00:11:06.451Z,118.52
2023-05-12T00:14:20.920Z,112.88
2023-05-12T00:17:29.967Z,117.80
2023-05-12T00:20:37.446Z,121.46
2023-05-12T00:23:43.426Z,121.34
2023-05-12T00:26:50.374Z,119.67
2023-05-12T00:29:59.434Z,119.38
2023-05-12T00:33:17.583Z,118.62
2023-05-12T00:36:23.712Z,123.69
2023-05-12T00:39:30.642Z,123.60
2023-05-12T00:42:38.029Z,126.59
2023-05-12T00:45:45.449Z,124.41
2023-05-12T00:48:55.632Z,121.49
2023-05-12T00:52:09.443Z,122.66
2023-05-12T00:55:19.356Z,114.12
2023-05-12T00:58:32.448Z,119.65
2023-05-12T01:01:39.659Z,118.79
2023-05-12T01:04:55.816Z,116.70
2023-05-12T01:08:04.581Z,115.79
2023-05-12T01:11:16.079Z,123.36
2023-05-12T01:14:22.078Z,122.02
2023-05-12T01:17:39.008Z,120.16
2023-05-12T01:20:54.095Z,122.19
2023-05-12T01:24:08.429Z,123.60
2023-05-12T01:27:23.192Z,115.85
2023-05-12T01:30:44.118Z,116.67
2023-05-12T01:33:52.291Z,118.07
2023-05-12T01:36:59.114Z,122.13
2023-05-12T01:40:05.657Z,116.06
2023-05-12T01:43:15.483Z,115.28
2023-05-12T01:46:21.361Z,115.39
2023-05-12T01:49:29.256Z,112.87
2023-05-12T01:52:35.458Z,107.89
2023-05-12T01:55:43.199Z,121.69
2023-05-12T01:58:51.936Z,114.82
2023-05-12T02:01:58.934Z,119.40
2023-05-12T02:05:11.229Z,107.64
2023-05-12T02:08:18.165Z,118.84
2023-05-12T02:11:24.263Z,110.69
2023-05-12T02:14:33.617Z,120.75
2023-05-12T02:17:39.929Z,115.91
2023-05-12T02:20:50.900Z,123.52
2023-05-12T02:23:56.941Z,120.50
2023-05-12T02:27:03.737Z,123.03
2023-05-12T02:30:15.483Z,133.28
2023-05-12T02:33:26.593Z,125.88
2023-05-12T02:36:32.877Z,123.19
2023-05-12T02:39:39.825Z,120.14
2023-05-12T02:42:45.923Z,111.60
2023-05-12T02:45:56.469Z,121.58
2023-05-12T02:49:05.605Z,119.43
2023-05-12T02:52:18.449Z,118.72
2023-05-12T02:55:24.891Z,110.70
2023-05-12T02:58:38.396Z,120.62
2023-05-12T03:01:47.015Z,115.36
2023-05-12T03:04:53.838Z,121.16
2023-05-12T03:07:59.859Z,128.41
2023-05-12T03:11:07.587Z,126.07
2023-05-12T03:14:14.204Z,124.60
2023-05-12T03:17:23.766Z,123.18
2023-05-12T03:20:29.757Z,117.96
2023-05-12T03:23:38.715Z,121.89
2023-05-12T03:26:49.022Z,111.64
2023-05-12T03:29:56.113Z,116.24
2023-05-12T03:33:12.624Z,128.58
2023-05-12T03:36:21.892Z,110.85
2023-05-12T03:39:27.894Z,103.38
2023-05-12T03:42:48.905Z,96.03
2023-05-12T03:45:57.564Z,101.87
2023-05-12T03:49:06.976Z,108.26
2023-05-12T03:52:12.985Z,101.85
2023-05-12T03:55:19.938Z,111.14
2023-05-12T03:58:26.340Z,109.90
2023-05-12T04:01:33.273Z,112.08
2023-05-12T04:04:43.048Z,103.67
2023-05-12T04:07:51.282Z,114.19
2023-05-12T04:10:59.135Z,97.99
2023-05-12T04:14:06.333Z,105.13
2023-05-12T04:17:12.259Z,101.69
2023-05-12T04:20:21.898Z,107.58
2023-05-12T04:23:28.662Z,99.57
2023-05-12T04:26:35.438Z,104.37
2023-05-12T04:29:41.523Z,96.55
2023-05-12T04:32:51.786Z,96.73
2023-05-12T04:36:02.141Z,107.04
2023-05-12T04:39:09.793Z,103.59
2023-05-12T04:42:16.178Z,96.35
2023-05-12T04:45:23.436Z,104.18
2023-05-12T04:48:31.539Z,102.64
2023-05-12T04:51:43.310Z,105.70
2023-05-12T04:54:49.727Z,96.74
2023-05-12T04:57:56.727Z,103.49
2023-05-12T05:01:03.829Z,99.88
2023-05-12T05:04:10.881Z,108.46
2023-05-12T05:07:19.750Z,106.05
2023-05-12T05:10:26.649Z,99.09
2023-05-12T05:13:32.666Z,105.19
2023-05-12T05:16:39.720Z,106.14
2023-05-12T05:19:57.518Z,98.05
2023-05-12T05:23:10.578Z,93.12
2023-05-12T05:26:16.667Z,100.25
2023-05-12T05:29:23.452Z,110.33
2023-05-12T05:32:30.681Z,103.04
2023-05-12T05:35:37.883Z,107.82
2023-05-12T05:38:47.152Z,104.82
2023-05-12T05:41:54.353Z,110.05
2023-05-12T05:45:00.408Z,97.31
2023-05-12T05:48:08.723Z,113.36
2023-05-12T05:51:15.333Z,109.70
2023-05-12T05:54:27.166Z,105.70
2023-05-12T05:57:33.316Z,109.40
2023-05-12T06:00:41.635Z,99.19
2023-05-12T06:03:47.764Z,93.22
2023-05-12T06:06:58.191Z,97.02
2023-05-12T06:10:07.242Z,101.03
2023-05-12T06:13:14.065Z,96.75
2023-05-12T06:16:20.165Z,101.86
2023-05-12T06:19:27.983Z,96.14
2023-05-12T06:22:35.017Z,96.73
2023-05-12T06:25:50.579Z,92.96
2023-05-12T06:28:56.841Z,79.77
2023-05-12T06:32:09.089Z,85.92
2023-05-12T06:35:15.216Z,92.10
2023-05-12T06:38:22.014Z,93.36
2023-05-12T06:41:39.725Z,81.90
2023-05-12T06:44:46.728Z,96.26
2023-05-12T06:47:53.125Z,91.95
2023-05-12T06:51:20.935Z,85.38
2023-05-12T06:54:27.289Z,91.06
2023-05-12T06:57:38.068Z,97.95
2023-05-12T07:00:44.171Z,87.45
2023-05-12T07:03:51.123Z,99.82
2023-05-12T07:06:57.378Z,99.79
2023-05-12T07:10:04.366Z,90.52
2023-05-12T07:13:13.337Z,83.78
2023-05-12T07:16:21.912Z,94.46
2023-05-12T07:19:30.901Z,80.70
2023-05-12T07:22:38.938Z,89.71
2023-05-12T07:25:45.406Z,79.60
2023-05-12T07:28:54.996Z,89.57
2023-05-12T07:32:00.813Z,83.88
2023-05-12T07:35:09.616Z,85.56
2023-05-12T07:38:16.370Z,80.86
2023-05-12T07:41:23.408Z,86.81
2023-05-12T07:44:37.265Z,70.12
2023-05-12T07:47:48.866Z,88.38
2023-05-12T07:50:55.052Z,70.23
2023-05-12T07:54:01.973Z,80.14
2023-05-12T07:57:08.397Z,86.47
2023-05-12T08:00:19.273Z,88.05
2023-05-12T08:03:25.470Z,81.22
2023-05-12T08:06:32.352Z,87.98
2023-05-12T08:09:38.288Z,78.87
2023-05-12T08:12:46.007Z,83.54
2023-05-12T08:15:55.840Z,83.35
2023-05-12T08:19:02.716Z,92.17
2023-05-12T08:22:08.754Z,84.68
2023-05-12T08:25:16.690Z,84.11
2023-05-12T08:28:22.528Z,74.98
2023-05-12T08:31:32.144Z,83.80
2023-05-12T08:34:38.328Z,79.27
2023-05-12T08:37:46.144Z,78.51
2023-05-12T08:41:11.241Z,79.67
2023-05-12T08:44:23.914Z,82.41
2023-05-12T08:47:33.926Z,77.06
2023-05-12T08:50:48.252Z,82.97
2023-05-12T08:53:59.844Z,75.35
2023-05-12T08:57:09.181Z,83.27
2023-05-12T09:03:37.202Z,88.13
2023-05-12T09:06:46.423Z,87.31
2023-05-12T09:10:01.645Z,86.38
2023-05-12T09:13:20.052Z,87.06
2023-05-12T09:16:35.296Z,84.18
2023-05-12T09:19:43.922Z,69.05
2023-05-12T09:22:50.894Z,75.78
2023-05-12T09:26:04.343Z,79.47
2023-05-12T09:29:15.786Z,77.64
2023-05-12T09:32:39.016Z,57.94
2023-05-12T09:35:49.647Z,69.75
2023-05-12T09:39:07.771Z,65.46
2023-05-12T09:42:17.591Z,68.87
2023-05-12T09:45:23.615Z,67.34
2023-05-12T09:48:30.456Z,70.42
2023-05-12T09:51:39.178Z,68.38
2023-05-12T09:54:46.133Z,71.32
2023-05-12T09:57:53.675Z,67.28
2023-05-12T10:04:15.116Z,58.21
2023-05-12T10:07:29.165Z,67.80
2023-05-12T10:10:40.584Z,62.72
2023-05-12T10:13:47.778Z,67.84
2023-05-12T10:16:55.258Z,61.60
2023-05-12T10:20:06.949Z,71.42
2023-05-12T10:23:16.661Z,63.56
2023-05-12T10:26:31.723Z,72.20
2023-05-12T10:29:43.978Z,64.15
2023-05-12T10:32:51.254Z,64.93
2023-05-12T10:36:00.445Z,60.59
2023-05-12T10:39:35.377Z,62.30
2023-05-12T10:42:44.251Z,74.17
2023-05-12T10:46:09.017Z,74.30
2023-05-12T10:49:15.994Z,66.04
2023-05-12T10:52:24.395Z,64.76
2023-05-12T10:55:51.625Z,67.57
2023-05-12T10:59:17.981Z,58.42
2023-05-12T11:02:31.202Z,63.63
2023-05-12T11:05:40.091Z,64.74
2023-05-12T11:08:50.632Z,60.87
2023-05-12T11:12:01.085Z,61.14
2023-05-12T11:15:09.725Z,64.40
2023-05-12T11:18:17.789Z,67.86
2023-05-12T11:21:23.800Z,60.39
2023-05-12T11:24:30.488Z,69.72
2023-05-12T11:27:42.783Z,62.75
2023-05-12T11:31:00.036Z,60.81
2023-05-12T11:34:12.704Z,62.20
2023-05-12T11:37:21.718Z,62.10
2023-05-12T11:40:27.703Z,65.20
2023-05-12T11:43:43.797Z,58.64
2023-05-12T11:47:01.168Z,58.71
2023-05-12T11:50:10.349Z,69.52
2023-05-12T11:53:19.098Z,61.33
2023-05-12T11:56:27.419Z,65.46
2023-05-12T11:59:38.256Z,66.33
2023-05-12T12:02:45.122Z,96.52
2023-05-12T12:06:02.887Z,67.72
2023-05-12T12:09:13.508Z,68.61
2023-05-12T12:12:26.689Z,51.62
2023-05-12T12:15:36.427Z,71.51
2023-05-12T12:18:43.483Z,66.01
2023-05-12T12:21:50.340Z,68.90
2023-05-12T12:24:56.427Z,71.67
2023-05-12T12:28:03.205Z,73.16
2023-05-12T12:31:12.035Z,66.81
2023-05-12T12:34:18.892Z,76.24
2023-05-12T12:37:24.942Z,65.48
2023-05-12T12:40:31.896Z,77.06
2023-05-12T12:43:38.127Z,79.60
2023-05-12T12:46:47.670Z,81.68
2023-05-12T12:50:00.701Z,66.90
2023-05-12T12:53:07.524Z,78.18
2023-05-12T12:56:13.440Z,78.87
2023-05-12T12:59:20.200Z,85.99
2023-05-12T13:02:30.008Z,83.54
2023-05-12T13:05:37.347Z,76.87
2023-05-12T13:08:43.543Z,78.41
2023-05-12T13:11:51.061Z,81.36
2023-05-12T13:14:57.239Z,75.55
2023-05-12T13:18:07.176Z,74.65
2023-05-12T13:21:13.194Z,70.60
2023-05-12T13:24:20.041Z,80.09
2023-05-12T13:27:29.395Z,80.01
2023-05-12T13:30:38.101Z,64.25
2023-05-12T13:33:46.668Z,71.31
2023-05-12T13:36:53.882Z,74.38
2023-05-12T13:39:59.998Z,64.42
2023-05-12T13:43:25.316Z,56.58
2023-05-12T13:46:31.265Z,54.48
2023-05-12T13:49:40.825Z,69.26
2023-05-12T13:52:47.898Z,62.94
2023-05-12T13:55:55.123Z,61.37
2023-05-12T13:59:05.284Z,58.67
2023-05-12T14:02:14.120Z,58.56
2023-05-12T14:05:23.596Z,60.90
2023-05-12T14:08:30.749Z,59.71
2023-05-12T14:11:37.321Z,62.51
2023-05-12T14:14:49.947Z,60.92
2023-05-12T14:17:56.052Z,49.51
2023-05-12T14:21:08.222Z,64.53
2023-05-12T14:24:14.171Z,66.02
2023-05-12T14:27:30.949Z,51.20
2023-05-12T14:30:37.796Z,60.89
2023-05-12T14:33:44.751Z,58.52
2023-05-12T14:36:53.282Z,56.15
2023-05-12T14:40:02.429Z,63.40
2023-05-12T14:43:14.827Z,61.66
2023-05-12T14:46:32.129Z,56.44
2023-05-12T14:49:38.011Z,67.18
2023-05-12T14:52:47.848Z,64.30
2023-05-12T14:55:54.938Z,68.68
2023-05-12T14:59:01.682Z,70.89
2023-05-12T15:02:17.078Z,65.14
2023-05-12T15:05:29.682Z,68.53
2023-05-12T15:08:47.302Z,51.72
2023-05-12T15:11:55.451Z,65.41
2023-05-12T15:15:04.708Z,59.81
2023-05-12T15:18:11.788Z,64.97
2023-05-12T15:21:26.338Z,52.69
2023-05-12T15:24:35.876Z,71.65
2023-05-12T15:27:42.201Z,60.87
2023-05-12T15:30:58.130Z,80.75
2023-05-12T15:34:04.001Z,85.09
2023-05-12T15:37:11.601Z,82.64
2023-05-12T15:40:20.506Z,81.84
2023-05-12T15:43:27.553Z,87.36
2023-05-12T15:46:38.525Z,78.79
2023-05-12T15:49:45.524Z,87.30
2023-05-12T15:52:51.758Z,74.16
2023-05-12T15:56:09.660Z,71.36
2023-05-12T15:59:16.627Z,84.94
2023-05-12T16:02:26.435Z,84.73
2023-05-12T16:05:34.373Z,75.49
2023-05-12T16:08:41.116Z,85.91
2023-05-12T16:11:49.655Z,83.06
2023-05-12T16:14:57.139Z,83.57
2023-05-12T16:18:03.288Z,68.30
2023-05-12T16:21:10.341Z,83.15
2023-05-12T16:24:16.248Z,83.64
2023-05-12T16:27:25.817Z,80.82
2023-05-12T16:30:40.156Z,72.44
2023-05-12T16:33:47.226Z,72.10
2023-05-12T16:36:53.365Z,71.40
2023-05-12T16:40:00.201Z,79.35
2023-05-12T16:43:08.873Z,71.49
2023-05-12T16:46:15.649Z,82.58
2023-05-12T16:49:21.650Z,71.78
2023-05-12T16:52:28.758Z,74.34
2023-05-12T16:55:34.727Z,70.56
2023-05-12T16:58:44.691Z,73.74
2023-05-12T17:01:51.162Z,73.08
2023-05-12T17:04:58.008Z,84.43
2023-05-12T17:08:03.948Z,69.52
2023-05-12T17:11:10.911Z,75.91
2023-05-12T17:14:23.848Z,63.37
2023-05-12T17:17:30.965Z,77.33
2023-05-12T17:20:37.345Z,72.59
2023-05-12T17:23:44.368Z,76.48
2023-05-12T17:26:50.906Z,68.53
2023-05-12T17:30:06.430Z,75.24
2023-05-12T17:33:18.659Z,56.37
2023-05-12T17:36:25.621Z,81.51
2023-05-12T17:39:31.555Z,81.05
2023-05-12T17:42:39.002Z,83.71
2023-05-12T17:45:48.014Z,71.84
2023-05-12T17:48:56.087Z,84.46
2023-05-12T17:52:02.558Z,72.72
2023-05-12T17:55:11.259Z,89.79
2023-05-12T17:58:17.360Z,77.02
2023-05-12T18:01:27.222Z,91.84
2023-05-12T18:04:36.284Z,117.51
2023-05-12T18:07:43.536Z,179.14
2023-05-12T18:11:00.249Z,114.43
2023-05-12T18:14:20.021Z,99.17
2023-05-12T18:17:29.333Z,97.00
2023-05-12T18:20:41.122Z,107.03
2023-05-12T18:23:47.262Z,90.09
2023-05-12T18:26:54.131Z,107.28
2023-05-12T18:30:00.134Z,98.96
2023-05-12T18:33:09.622Z,107.55
2023-05-12T18:36:15.637Z,92.28
2023-05-12T18:39:23.851Z,112.37
2023-05-12T18:42:32.695Z,113.10
2023-05-12T18:45:39.675Z,116.78
2023-05-12T18:48:48.866Z,109.61
2023-05-12T18:51:55.746Z,107.80
2023-05-12T18:55:01.735Z,106.74
2023-05-12T18:58:08.763Z,119.69
2023-05-12T19:01:15.048Z,111.40
2023-05-12T19:04:24.904Z,119.95
2023-05-12T19:07:30.980Z,98.71
2023-05-12T19:10:39.768Z,105.71
2023-05-12T19:13:47.554Z,92.00
2023-05-12T19:16:54.573Z,97.60
2023-05-12T19:20:03.581Z,100.97
2023-05-12T19:23:10.415Z,100.23
2023-05-12T19:26:19.188Z,97.43
2023-05-12T19:29:26.440Z,96.08
2023-05-12T19:32:34.065Z,90.88
2023-05-12T19:35:43.656Z,97.64
2023-05-12T19:38:49.735Z,97.82
2023-05-12T19:41:56.802Z,101.77
2023-05-12T19:45:02.923Z,96.20
2023-05-12T19:48:10.802Z,94.77
2023-05-12T19:51:19.512Z,98.84
2023-05-12T19:54:26.787Z,107.19
2023-05-12T19:57:32.828Z,109.54
2023-05-12T20:00:40.039Z,112.08
2023-05-12T20:03:46.112Z,99.84
2023-05-12T20:06:57.698Z,115.16
2023-05-12T20:10:04.009Z,105.42
2023-05-12T20:13:10.758Z,112.54
2023-05-12T20:16:16.914Z,105.29
2023-05-12T20:19:28.051Z,115.03
2023-05-12T20:22:36.824Z,105.19
2023-05-12T20:25:43.835Z,116.32
2023-05-12T20:28:51.454Z,116.03
2023-05-12T20:31:58.856Z,111.40
2023-05-12T20:35:05.696Z,124.47
2023-05-12T20:38:15.787Z,128.13
2023-05-12T20:41:21.884Z,111.59
2023-05-12T20:44:29.075Z,112.58
2023-05-12T20:47:37.807Z,94.74
2023-05-12T20:50:46.045Z,105.33
2023-05-12T20:53:54.983Z,100.95
2023-05-12T20:57:01.853Z,110.60
2023-05-12T21:00:11.013Z,99.77
2023-05-12T21:03:17.752Z,108.27
2023-05-12T21:06:23.775Z,102.36
2023-05-12T21:09:33.214Z,107.35
2023-05-12T21:12:39.789Z,105.14
2023-05-12T21:15:46.608Z,112.04
2023-05-12T21:18:52.643Z,100.24
2023-05-12T21:21:59.450Z,103.77
2023-05-12T21:25:09.471Z,94.89
2023-05-12T21:28:18.071Z,100.60
2023-05-12T21:31:24.197Z,95.90
2023-05-12T21:34:33.877Z,104.52
2023-05-12T21:37:40.677Z,101.64
2023-05-12T21:40:55.217Z,102.60
2023-05-12T21:44:01.341Z,89.27
2023-05-12T21:47:09.028Z,97.91
2023-05-12T21:50:15.189Z,93.38
2023-05-12T21:53:21.929Z,102.49
2023-05-12T21:56:30.595Z,94.76
2023-05-12T21:59:37.621Z,101.95
2023-05-12T22:02:43.663Z,113.71
2023-05-12T22:05:50.505Z,108.40
2023-05-12T22:08:56.810Z,105.22
2023-05-12T22:12:06.201Z,112.50
2023-05-12T22:15:13.381Z,112.80
2023-05-12T22:18:20.242Z,119.00
2023-05-12T22:21:26.558Z,108.88
2023-05-12T22:24:33.372Z,114.36
2023-05-12T22:27:41.950Z,101.44
2023-05-12T22:30:48.748Z,107.29
2023-05-12T22:33:54.764Z,103.40
2023-05-12T22:37:01.613Z,115.27
2023-05-12T22:40:09.391Z,106.85
2023-05-12T22:43:18.716Z,116.94
2023-05-12T22:46:26.666Z,105.74
2023-05-12T22:49:33.520Z,114.26
2023-05-12T22:52:39.434Z,112.69
2023-05-12T22:55:47.252Z,113.18
2023-05-12T22:58:55.886Z,105.83
2023-05-12T23:02:02.694Z,120.11
2023-05-12T23:05:10.292Z,120.85
2023-05-12T23:08:17.087Z,124.24
2023-05-12T23:11:23.353Z,112.62
2023-05-12T23:14:32.754Z,128.77
2023-05-12T23:17:38.813Z,121.51
2023-05-12T23:20:46.177Z,121.28
2023-05-12T23:23:52.060Z,120.76
2023-05-12T23:26:58.890Z,126.79
2023-05-12T23:30:08.707Z,131.43
2023-05-12T23:33:15.980Z,136.74
2023-05-12T23:36:22.315Z,131.87
2023-05-12T23:39:29.380Z,134.75
2023-05-12T23:42:35.242Z,129.63
2023-05-12T23:45:44.767Z,136.31
2023-05-12T23:48:51.316Z,135.08
2023-05-12T23:51:58.119Z,137.97
2023-05-12T23:55:04.267Z,133.93
2023-05-12T23:58:11.539Z,136.76
